Pagina principală
METAR-TAF:

METAR-TAF

Aeroporturi :

Ardmore Downtown Executive Airport

Ardmore, Oklahoma, Statele Unite ale Americii

Latitudine: 34-08-49N, longitudine: 097-07-21W, elevație: 257 m

Observații meteo curente

Raportul a fost făcut în urmă cu 29 de minute, la 05:15 UTC
Vânt 3 kt de la Sud/Sud-est
Temperatură 21°C
Umiditate 88%
Presiune 1014 hPa
Vizibilitate: 16.1 km
Cer senin

METAR: K1F0 190515Z AUTO 15003KT 10SM CLR 21/19 A2993 RMK AO2 T02130185

Ora: 00:44 (05:44 UTC)


TAF: lipsă

Observații și prognoze meteo pentru peste 4.000 de aeroporturi (rapoarte METAR și TAF).

Stațiile disponibile sunt reprezentate pe hartă prin puncte galbene și roșii.

Țineți indicatorul mouse-ului pe punctul dorit pentru a vedea denumirea stației.

Apoi, faceți clic pentru a vedea observațiile și prognozele meteorologice.

Pentru a schimba harta: Pentru mărire, faceți clic pe butoanele verzi cu cruce neagră; pentru micșorare, pe butonul verde cu o liniuță; pentru hărți învecinate, pe săgețile verzi.


METAR-TAF: